Syoueimaru — JL6084 — position and weather

sailwx.info

Track history (hours):
 
Tides and Currents Weather Stations Pressure Air Temp Water Temp Dewpoint Dewpoint Depression Visibility Wind Speed Wind Dir Waves Ship Positions

Syoueimaru

Last reported at 2014-Jun-17 07:12 UTC. Time now 2014-Dec-18 08:33 UTC.
Position N 34°37' E 138°58'.
Warning: this ship's position is months out of date.

Length 79 m; draft 4.1 m.

Type: Other ship. MMSI: 431500094.

Date/timePositionNaut miles runAvg speedWind from/ knotsBaromVisibWave heightAir tempDewpointWater temp
2014-Jun-17 07:12N 34°37' E 138°58'17 9.9
2014-Jun-17 05:29N 34°50' E 139°11'10 9.7
2014-Jun-17 04:29N 34°56' E 139°21'910.1
2014-Jun-17 03:33N 35°01' E 139°30'1110.6
2014-Jun-17 02:34N 35°07' E 139°41'1010.3
2014-Jun-17 01:34N 35°16' E 139°45'9 9.4
2014-Jun-17 00:34N 35°26' E 139°45'9 9.5
2014-Jun-16 23:33N 35°34' E 139°50'4 3.6
2014-Jun-16 22:33N 35°38' E 139°50'0 0.0
2014-Jun-16 21:34N 35°38' E 139°50'0 0.0
2014-Jun-16 20:33N 35°38' E 139°50'0 0.0
2014-Jun-16 19:28N 35°38' E 139°50'0 0.0
2014-Jun-16 18:31N 35°38' E 139°50'0 0.0
2014-Jun-16 17:31N 35°38' E 139°50'0 0.0
2014-Jun-16 16:31N 35°38' E 139°50'0 0.0
2014-Jun-16 15:31N 35°38' E 139°50'0 0.0
2014-Jun-16 14:25N 35°38' E 139°50'0 0.0
2014-Jun-16 13:31N 35°38' E 139°50'0 0.0
2014-Jun-16 12:28N 35°38' E 139°50'0 0.0
2014-Jun-16 11:28N 35°38' E 139°50'0 0.0
2014-Jun-16 10:31N 35°38' E 139°50'0 0.0
2014-Jun-16 09:31N 35°38' E 139°50'0 0.0
2014-Jun-16 08:31N 35°38' E 139°50'0 0.0
2014-Jun-16 07:28N 35°38' E 139°50'0 0.0
2014-Jun-16 06:33N 35°38' E 139°50'0 0.1
2014-Jun-16 05:33N 35°38' E 139°50'4 4.2
2014-Jun-16 04:33N 35°34' E 139°51'9 9.0
2014-Jun-16 03:33N 35°25' E 139°48'9 8.7
2014-Jun-16 02:33N 35°17' E 139°46'9 8.6
2014-Jun-16 01:33N 35°08' E 139°46'1010.2
2014-Jun-16 00:33N 34°58' E 139°44'23 7.5
2014-Jun-15 21:25N 35°02' E 140°12'20 8.8
2014-Jun-15 19:08N 35°15' E 140°31'15 9.6
2014-Jun-15 17:33N 35°27' E 140°42'10 9.7
2014-Jun-15 16:33N 35°34' E 140°50'10 9.5
2014-Jun-15 15:33N 35°42' E 140°56'1010.0
2014-Jun-15 14:33N 35°52' E 140°57'10 9.9
2014-Jun-15 13:33N 36°02' E 140°58'10 9.9
2014-Jun-15 12:33N 36°12' E 140°59'9 9.4
2014-Jun-15 11:33N 36°21' E 141°00'10 9.9
2014-Jun-15 10:33N 36°31' E 141°02'  
Track history (hours):
 
Tides and Currents Weather Stations Pressure Air Temp Water Temp Dewpoint Dewpoint Depression Visibility Wind Speed Wind Dir Waves Ship Positions

Syoueimaru

Last reported at 2014-Jun-17 07:12 UTC. Time now 2014-Dec-18 08:33 UTC.
Position N 34°37' E 138°58'.
Warning: this ship's position is months out of date.

Length 79 m; draft 4.1 m.

Type: Other ship. MMSI: 431500094.

Date/timePositionNaut miles runAvg speedWind from/ knotsBaromVisibWave heightAir tempDewpointWater temp
2014-Jun-17 07:12N 34°37' E 138°58'17 9.9
2014-Jun-17 05:29N 34°50' E 139°11'10 9.7
2014-Jun-17 04:29N 34°56' E 139°21'910.1
2014-Jun-17 03:33N 35°01' E 139°30'1110.6
2014-Jun-17 02:34N 35°07' E 139°41'1010.3
2014-Jun-17 01:34N 35°16' E 139°45'9 9.4
2014-Jun-17 00:34N 35°26' E 139°45'9 9.5
2014-Jun-16 23:33N 35°34' E 139°50'4 3.6
2014-Jun-16 22:33N 35°38' E 139°50'0 0.0
2014-Jun-16 21:34N 35°38' E 139°50'0 0.0
2014-Jun-16 20:33N 35°38' E 139°50'0 0.0
2014-Jun-16 19:28N 35°38' E 139°50'0 0.0
2014-Jun-16 18:31N 35°38' E 139°50'0 0.0
2014-Jun-16 17:31N 35°38' E 139°50'0 0.0
2014-Jun-16 16:31N 35°38' E 139°50'0 0.0
2014-Jun-16 15:31N 35°38' E 139°50'0 0.0
2014-Jun-16 14:25N 35°38' E 139°50'0 0.0
2014-Jun-16 13:31N 35°38' E 139°50'0 0.0
2014-Jun-16 12:28N 35°38' E 139°50'0 0.0
2014-Jun-16 11:28N 35°38' E 139°50'0 0.0
2014-Jun-16 10:31N 35°38' E 139°50'0 0.0
2014-Jun-16 09:31N 35°38' E 139°50'0 0.0
2014-Jun-16 08:31N 35°38' E 139°50'0 0.0
2014-Jun-16 07:28N 35°38' E 139°50'0 0.0
2014-Jun-16 06:33N 35°38' E 139°50'0 0.1
2014-Jun-16 05:33N 35°38' E 139°50'4 4.2
2014-Jun-16 04:33N 35°34' E 139°51'9 9.0
2014-Jun-16 03:33N 35°25' E 139°48'9 8.7
2014-Jun-16 02:33N 35°17' E 139°46'9 8.6
2014-Jun-16 01:33N 35°08' E 139°46'1010.2
2014-Jun-16 00:33N 34°58' E 139°44'23 7.5
2014-Jun-15 21:25N 35°02' E 140°12'20 8.8
2014-Jun-15 19:08N 35°15' E 140°31'15 9.6
2014-Jun-15 17:33N 35°27' E 140°42'10 9.7
2014-Jun-15 16:33N 35°34' E 140°50'10 9.5
2014-Jun-15 15:33N 35°42' E 140°56'1010.0
2014-Jun-15 14:33N 35°52' E 140°57'10 9.9
2014-Jun-15 13:33N 36°02' E 140°58'10 9.9
2014-Jun-15 12:33N 36°12' E 140°59'9 9.4
2014-Jun-15 11:33N 36°21' E 141°00'10 9.9
2014-Jun-15 10:33N 36°31' E 141°02'  

Dump ship's entire track history